createdAt,value
2016-08-04T13:45:24.929Z,79.3
2016-08-04T13:45:36.364Z,78.5
2016-08-04T13:45:46.419Z,77.6
2016-08-04T13:45:57.066Z,77.8
2016-08-04T13:46:07.065Z,77.7
2016-08-04T13:46:16.332Z,77.1
2016-08-04T13:46:27.067Z,77.6
2016-08-04T13:46:37.075Z,77.2
2016-08-04T13:46:46.346Z,77.5
2016-08-04T13:46:57.083Z,77.7
2016-08-04T13:47:07.093Z,77
2016-08-04T13:47:17.097Z,77.8
2016-08-04T13:47:27.096Z,77.1
2016-08-04T13:47:37.107Z,77.5
2016-08-04T13:47:47.109Z,77.1
2016-08-04T13:47:57.108Z,77.2
2016-08-04T13:48:07.116Z,77.3
2016-08-04T13:48:17.122Z,77.5
2016-08-04T13:48:26.393Z,77.2
2016-08-04T13:48:37.177Z,76.9
2016-08-04T13:48:47.136Z,77.2
2016-08-04T13:48:57.141Z,77.3
2016-08-04T13:49:07.140Z,77.4
2016-08-04T13:49:17.141Z,77.2
2016-08-04T13:49:27.147Z,77.1
2016-08-04T13:49:37.150Z,76.8
2016-08-04T13:49:47.161Z,76.9
2016-08-04T13:49:57.161Z,76.6
2016-08-04T13:50:07.180Z,77.3
2016-08-04T13:50:16.440Z,76.6
2016-08-04T13:50:27.181Z,76.8
2016-08-04T13:50:37.181Z,76.9
2016-08-04T13:50:47.191Z,76.9
2016-08-04T13:50:57.201Z,77.2
2016-08-04T13:51:07.219Z,76.9
2016-08-04T13:51:17.203Z,77.4
2016-08-04T13:51:27.216Z,77.1
2016-08-04T13:51:36.486Z,76.9
2016-08-04T13:51:47.221Z,76.8
2016-08-04T13:51:57.221Z,76.5
2016-08-04T13:52:07.223Z,76.8
2016-08-04T13:52:16.504Z,76.7
2016-08-04T13:52:27.239Z,76.8
2016-08-04T13:52:37.252Z,76.9
2016-08-04T13:53:07.262Z,77.6
2016-08-04T13:53:17.267Z,76.7
2016-08-04T13:53:27.260Z,77
2016-08-04T13:53:37.270Z,77.3
2016-08-04T13:53:46.546Z,77.3
2016-08-04T13:53:57.279Z,76.5
2016-08-04T13:54:06.565Z,77.5
2016-08-04T13:54:17.290Z,77.2
2016-08-04T13:54:27.295Z,77.2
2016-08-04T13:54:37.298Z,77.3
2016-08-04T13:54:47.652Z,76.9
2016-08-04T13:54:57.307Z,77.3
2016-08-04T13:55:07.325Z,77.4
2016-08-04T13:55:17.385Z,77.5
2016-08-04T13:55:26.607Z,77.6
2016-08-04T13:55:37.329Z,77.6
2016-08-04T13:55:47.332Z,77.6
2016-08-04T13:55:57.340Z,76.9
2016-08-04T13:56:06.611Z,77.2
2016-08-04T13:56:17.348Z,77.3
2016-08-04T13:56:27.361Z,77.6
2016-08-04T13:56:37.355Z,77.3
2016-08-04T13:56:46.621Z,77.1
2016-08-04T13:56:57.366Z,77.4
2016-08-04T13:57:07.368Z,77.5
2016-08-04T13:57:17.380Z,77.3
2016-08-04T13:57:27.379Z,77.6
2016-08-04T13:57:37.385Z,77.3
2016-08-04T13:57:47.388Z,77.7
2016-08-04T13:57:57.395Z,76.9
2016-08-04T13:58:07.399Z,77.5
2016-08-04T13:58:17.408Z,77.6
2016-08-04T13:58:27.410Z,77.2
2016-08-04T13:58:37.416Z,77
2016-08-04T13:58:47.421Z,77.7
2016-08-04T13:58:57.422Z,77.7
2016-08-04T13:59:07.432Z,77.8
2016-08-04T13:59:17.434Z,77
2016-08-04T13:59:26.709Z,77.3
2016-08-04T13:59:36.714Z,77.8
2016-08-04T13:59:46.717Z,77.5
2016-08-04T13:59:57.451Z,77.7
2016-08-04T14:00:07.461Z,77
2016-08-04T14:00:17.467Z,76.9
2016-08-04T14:00:27.473Z,77.6
2016-08-04T14:00:37.482Z,78
2016-08-04T14:00:47.480Z,77.4
2016-08-04T14:00:57.483Z,76.8
2016-08-04T14:01:07.490Z,77.3
2016-08-04T14:01:17.496Z,77.5
2016-08-04T14:01:27.504Z,77.4
2016-08-04T14:01:37.514Z,77.5
2016-08-04T14:01:47.506Z,78.1
2016-08-04T14:01:57.515Z,77.7
2016-08-04T14:02:07.518Z,77.4
2016-08-04T14:02:17.535Z,77.5
2016-08-04T14:02:27.529Z,77.5
2016-08-04T14:02:37.538Z,77.3
2016-08-04T14:02:47.537Z,77.7
2016-08-04T14:02:57.539Z,77.6
2016-08-04T14:03:07.555Z,77.1
2016-08-04T14:03:17.553Z,77.4
2016-08-04T14:03:27.555Z,77.3
2016-08-04T14:03:37.567Z,77.6
2016-08-04T14:03:47.570Z,77.2
2016-08-04T14:03:57.577Z,77.3
2016-08-04T14:04:07.577Z,76.9
2016-08-04T14:04:17.587Z,77.3
2016-08-04T14:04:27.587Z,77.1
2016-08-04T14:04:37.598Z,77.5
2016-08-04T14:04:47.601Z,77.4
2016-08-04T14:04:57.608Z,77.1
2016-08-04T14:05:06.875Z,76.8
2016-08-04T14:05:17.615Z,77.5
2016-08-04T14:05:26.898Z,77.4
2016-08-04T14:05:37.624Z,77.3
2016-08-04T14:05:47.637Z,77.3
2016-08-04T14:05:56.905Z,77.1
2016-08-04T14:06:07.633Z,77.6
2016-08-04T14:06:17.648Z,77.1
2016-08-04T14:06:27.651Z,77.5
2016-08-04T14:06:37.655Z,77.9
2016-08-04T14:06:47.657Z,77.5
2016-08-04T14:06:57.668Z,77.9
2016-08-04T14:07:06.925Z,77.6
2016-08-04T14:07:17.670Z,78
2016-08-04T14:07:27.675Z,77.6
2016-08-04T14:07:36.956Z,77.9
2016-08-04T14:08:07.695Z,78
2016-08-04T14:08:17.703Z,77.9
2016-08-04T14:08:26.974Z,78.1
2016-08-04T14:08:37.711Z,78.1
2016-08-04T14:08:47.727Z,77.9
2016-08-04T14:08:57.720Z,78.3
2016-08-04T14:09:07.728Z,78.1
2016-08-04T14:09:17.730Z,78.2
2016-08-04T14:09:27.734Z,77.6
2016-08-04T14:09:37.748Z,78.1
2016-08-04T14:09:47.749Z,77.5
2016-08-04T14:09:57.749Z,77.7
2016-08-04T14:10:07.753Z,77.7
2016-08-04T14:10:17.765Z,78
2016-08-04T14:10:27.765Z,77.9
2016-08-04T14:10:37.774Z,78.4
2016-08-04T14:10:47.774Z,77.5
2016-08-04T14:10:57.781Z,77.9
2016-08-04T14:11:07.787Z,77.8
2016-08-04T14:11:17.787Z,77.5
2016-08-04T14:11:27.795Z,78
2016-08-04T14:11:37.802Z,77.7
2016-08-04T14:11:47.803Z,77.8
2016-08-04T14:11:57.806Z,78
2016-08-04T14:12:07.812Z,77.8
2016-08-04T14:12:17.818Z,77.8
2016-08-04T14:12:27.822Z,78.1
2016-08-04T14:12:37.834Z,78.2
2016-08-04T14:12:47.108Z,78.3
2016-08-04T14:12:57.107Z,78.1
2016-08-04T14:13:07.106Z,78.2
2016-08-04T14:13:17.846Z,77.7
2016-08-04T14:13:26.392Z,78.1
2016-08-04T14:13:37.129Z,78.7
2016-08-04T14:13:47.863Z,78.4
2016-08-04T14:13:57.148Z,78.5
2016-08-04T14:14:07.133Z,77.9
2016-08-04T14:14:17.146Z,78.5
2016-08-04T14:14:27.883Z,78.1
2016-08-04T14:14:37.900Z,78.2
2016-08-04T14:14:47.896Z,78.6
2016-08-04T14:14:56.437Z,78.2
2016-08-04T14:15:07.173Z,78.1
2016-08-04T14:15:17.176Z,77.9
2016-08-04T14:15:27.911Z,78.6
2016-08-04T14:15:37.203Z,78.2
2016-08-04T14:15:47.922Z,78.3
2016-08-04T14:15:55.740Z,78.5
2016-08-04T14:16:07.930Z,78.4
2016-08-04T14:16:17.211Z,78.1
2016-08-04T14:16:27.212Z,78.4
2016-08-04T14:16:36.489Z,78
2016-08-04T14:16:47.953Z,77.9
2016-08-04T14:16:57.948Z,78.3
2016-08-04T14:17:06.494Z,78.3
2016-08-04T14:17:17.241Z,78.1
2016-08-04T14:17:26.504Z,78.8
2016-08-04T14:17:37.248Z,78.1
2016-08-04T14:17:46.516Z,78.5
2016-08-04T14:17:57.984Z,78.6
2016-08-04T14:18:06.521Z,78
2016-08-04T14:18:17.994Z,78.6
2016-08-04T14:18:27.258Z,78.1
2016-08-04T14:18:38.002Z,78.2
2016-08-04T14:18:48.013Z,78.3
2016-08-04T14:18:58.014Z,78.5
2016-08-04T14:19:08.016Z,78.6
2016-08-04T14:19:18.020Z,78.6
2016-08-04T14:19:28.031Z,79.1
2016-08-04T14:19:38.032Z,79.3
2016-08-04T14:19:46.573Z,78.6
2016-08-04T14:19:56.577Z,78.2
2016-08-04T14:20:07.329Z,78.8
2016-08-04T14:20:17.324Z,78.8
2016-08-04T14:20:28.069Z,78.5
2016-08-04T14:20:38.066Z,78.1
2016-08-04T14:20:48.070Z,79
2016-08-04T14:20:58.078Z,78.7
2016-08-04T14:21:07.351Z,79
2016-08-04T14:21:18.084Z,79.2
2016-08-04T14:21:27.355Z,79.3
2016-08-04T14:21:37.363Z,79.3
2016-08-04T14:21:46.638Z,79
2016-08-04T14:21:56.634Z,79.1
2016-08-04T14:22:08.106Z,78.9
2016-08-04T14:22:17.379Z,79.2
2016-08-04T14:22:27.386Z,79.1
2016-08-04T14:22:37.396Z,79.1
2016-08-04T14:22:47.406Z,79.8
2016-08-04T14:23:06.671Z,78.8
2016-08-04T14:23:17.686Z,78.6
2016-08-04T14:23:28.146Z,79.1
2016-08-04T14:23:38.150Z,79.4
2016-08-04T14:23:47.411Z,79.3
2016-08-04T14:23:58.159Z,79.9
2016-08-04T14:24:08.173Z,78.8
2016-08-04T14:24:17.442Z,79
2016-08-04T14:24:27.439Z,79.3
2016-08-04T14:24:38.182Z,79.7
2016-08-04T14:24:46.723Z,79.7
2016-08-04T14:24:57.451Z,79.3
2016-08-04T14:25:05.995Z,79
2016-08-04T14:25:17.475Z,79.7
2016-08-04T14:25:27.472Z,79.1
2016-08-04T14:25:38.207Z,79.1
2016-08-04T14:25:47.474Z,79
2016-08-04T14:25:58.218Z,79.1
2016-08-04T14:26:07.490Z,79.3
2016-08-04T14:26:17.503Z,79.4
2016-08-04T14:26:28.244Z,78.9
2016-08-04T14:26:38.242Z,79.3
2016-08-04T14:26:46.782Z,79.7
2016-08-04T14:26:57.511Z,79.7
2016-08-04T14:27:08.257Z,80
2016-08-04T14:27:18.258Z,79.4
2016-08-04T14:27:27.533Z,79.7
2016-08-04T14:27:38.267Z,79.4
2016-08-04T14:27:48.272Z,79.7
2016-08-04T14:27:57.541Z,79.3
2016-08-04T14:28:08.282Z,79.7
2016-08-04T14:28:18.289Z,79.4
2016-08-04T14:28:27.560Z,79.5
2016-08-04T14:28:38.295Z,79.9
2016-08-04T14:28:47.574Z,79.2
2016-08-04T14:28:58.304Z,79.5
2016-08-04T14:29:08.307Z,79.2
2016-08-04T14:29:16.845Z,79.7
2016-08-04T14:29:26.998Z,79.3
2016-08-04T14:29:37.594Z,79.4
2016-08-04T14:29:46.869Z,80.1
2016-08-04T14:29:56.875Z,79.4
2016-08-04T14:30:08.349Z,79.4
2016-08-04T14:30:16.877Z,80
2016-08-04T14:30:26.894Z,79.7
2016-08-04T14:30:37.613Z,79.6
2016-08-04T14:30:48.361Z,79.9
2016-08-04T14:30:56.920Z,79.3
2016-08-04T14:31:06.904Z,79.7
2016-08-04T14:31:18.375Z,79.6
2016-08-04T14:31:27.650Z,79.5
2016-08-04T14:31:38.382Z,79.6
2016-08-04T14:31:48.388Z,79.6
2016-08-04T14:31:58.391Z,79.9
2016-08-04T14:32:08.393Z,79.5
2016-08-04T14:32:16.937Z,79.6
2016-08-04T14:32:26.206Z,79.7
2016-08-04T14:32:37.683Z,79.5
2016-08-04T14:32:47.694Z,80
2016-08-04T14:32:58.428Z,79.6
2016-08-04T14:33:07.699Z,79.9
2016-08-04T14:33:17.704Z,79.5
2016-08-04T14:33:28.437Z,79.5
2016-08-04T14:33:38.446Z,79.5
2016-08-04T14:33:46.991Z,79.7
2016-08-04T14:33:57.721Z,80
2016-08-04T14:34:07.732Z,80
2016-08-04T14:34:17.727Z,79.9
2016-08-04T14:34:28.465Z,80.1
2016-08-04T14:34:37.007Z,79.8
2016-08-04T14:34:48.475Z,80.5
2016-08-04T14:34:57.749Z,80.1
2016-08-04T14:35:08.483Z,80
2016-08-04T14:35:17.754Z,79.9
2016-08-04T14:35:27.758Z,79.8
2016-08-04T14:35:38.498Z,79.9
2016-08-04T14:35:48.510Z,79.9
2016-08-04T14:35:58.512Z,79.9
2016-08-04T14:36:08.517Z,79.7
2016-08-04T14:36:17.063Z,79.7
2016-08-04T14:36:27.792Z,79.7
2016-08-04T14:36:38.528Z,80.4
2016-08-04T14:36:47.064Z,80.1
2016-08-04T14:36:57.805Z,79.8
2016-08-04T14:37:08.542Z,79.7
2016-08-04T14:37:17.816Z,79.6
2016-08-04T14:37:26.363Z,80
2016-08-04T14:37:37.098Z,80.2
2016-08-04T14:37:48.562Z,80.3
2016-08-04T14:38:17.839Z,79.9
2016-08-04T14:38:27.852Z,79.9
2016-08-04T14:38:38.581Z,80
2016-08-04T14:38:47.866Z,80
2016-08-04T14:38:58.595Z,80.3
2016-08-04T14:39:08.603Z,80.6
2016-08-04T14:39:18.605Z,80.1
2016-08-04T14:39:27.881Z,80
2016-08-04T14:39:37.874Z,79.9
2016-08-04T14:39:47.153Z,80.5
2016-08-04T14:39:57.159Z,80.3
2016-08-04T14:40:07.157Z,80.2
2016-08-04T14:40:17.904Z,79.9
2016-08-04T14:40:27.913Z,79.8
2016-08-04T14:40:37.914Z,80.2
2016-08-04T14:40:48.647Z,80.1
2016-08-04T14:40:58.648Z,80.2
2016-08-04T14:41:08.658Z,80.3
2016-08-04T14:41:17.933Z,79.8
2016-08-04T14:41:28.667Z,80
2016-08-04T14:41:38.673Z,80.1
2016-08-04T14:41:48.681Z,80.4
2016-08-04T14:41:58.685Z,80.4
2016-08-04T14:42:07.947Z,80.4
2016-08-04T14:42:17.961Z,80.9
2016-08-04T14:42:28.696Z,80.1
2016-08-04T14:42:37.968Z,80.1
2016-08-04T14:42:48.705Z,80.5
2016-08-04T14:42:58.707Z,80.4
2016-08-04T14:43:07.983Z,80.4
2016-08-04T14:43:18.722Z,80.2
2016-08-04T14:43:28.721Z,81.3
2016-08-04T14:43:38.737Z,80.7
2016-08-04T14:43:48.733Z,80.6
2016-08-04T14:43:58.006Z,80.8
2016-08-04T14:44:08.737Z,81.2
2016-08-04T14:44:18.747Z,80.9
2016-08-04T14:44:28.755Z,80.8
2016-08-04T14:44:38.762Z,80.8
2016-08-04T14:44:48.037Z,81.2
2016-08-04T14:44:58.767Z,81.1
2016-08-04T14:45:08.772Z,80.9
2016-08-04T14:45:18.776Z,81.6
2016-08-04T14:45:28.790Z,80.7
2016-08-04T14:45:38.794Z,81.1
2016-08-04T14:45:48.787Z,81.2
2016-08-04T14:45:58.796Z,81.1
2016-08-04T14:46:08.806Z,80.9
2016-08-04T14:46:18.819Z,80.9
2016-08-04T14:46:28.813Z,81.4
2016-08-04T14:46:38.813Z,81
2016-08-04T14:46:48.819Z,80.7
2016-08-04T14:46:58.837Z,80.7
2016-08-04T14:47:08.096Z,81
2016-08-04T14:47:18.832Z,81.1
2016-08-04T14:47:28.838Z,80.5
2016-08-04T14:47:38.844Z,80.9
2016-08-04T14:47:48.848Z,80.7
2016-08-04T14:47:58.851Z,80.8
2016-08-04T14:48:08.859Z,81.1
2016-08-04T14:48:18.861Z,80.3
2016-08-04T14:48:28.141Z,80.7
2016-08-04T14:48:38.873Z,81
2016-08-04T14:48:48.875Z,80.9
2016-08-04T14:48:58.878Z,80.5
2016-08-04T14:49:08.890Z,80.7
2016-08-04T14:49:18.892Z,80.8
2016-08-04T14:49:28.896Z,80.3
2016-08-04T14:49:38.904Z,80.5
2016-08-04T14:49:48.184Z,80.6
2016-08-04T14:49:58.918Z,80.4
2016-08-04T14:50:08.917Z,80.3
2016-08-04T14:50:18.920Z,80.4
2016-08-04T14:50:28.933Z,80.2
2016-08-04T14:50:38.929Z,80
2016-08-04T14:50:48.937Z,80.5
2016-08-04T14:50:58.939Z,80.1
2016-08-04T14:51:08.952Z,80.2
2016-08-04T14:51:18.952Z,79.7
2016-08-04T14:51:28.962Z,79.9
2016-08-04T14:51:38.957Z,80
2016-08-04T14:51:48.967Z,80.1
2016-08-04T14:51:58.976Z,80.7
2016-08-04T14:52:08.975Z,80.2
2016-08-04T14:52:18.241Z,79.7
2016-08-04T14:52:28.999Z,79.7
2016-08-04T14:52:38.988Z,79.6
2016-08-04T14:52:48.255Z,79.7
2016-08-04T14:52:58.997Z,80
2016-08-04T14:53:19.008Z,79.3
2016-08-04T14:53:29.019Z,79.4
2016-08-04T14:53:39.024Z,79.2
2016-08-04T14:53:49.030Z,79.4
2016-08-04T14:53:58.299Z,79.9
2016-08-04T14:54:08.314Z,79.3
2016-08-04T14:54:17.570Z,79.5
2016-08-04T14:54:29.044Z,79.5
2016-08-04T14:54:39.046Z,79.4
2016-08-04T14:54:49.051Z,79.4
2016-08-04T14:54:59.057Z,79.3
2016-08-04T14:55:09.072Z,79.2
2016-08-04T14:55:19.064Z,79.1
2016-08-04T14:55:29.070Z,79.5
2016-08-04T14:55:39.079Z,79.1
2016-08-04T14:55:49.090Z,78.9
2016-08-04T14:55:59.092Z,79.1
2016-08-04T14:56:09.088Z,79
2016-08-04T14:56:19.186Z,79
2016-08-04T14:56:29.098Z,78.8
2016-08-04T14:56:39.103Z,78.3
2016-08-04T14:56:49.107Z,79.3
2016-08-04T14:56:59.116Z,79.1
2016-08-04T14:57:09.122Z,79.3
2016-08-04T14:57:19.128Z,78.6
2016-08-04T14:57:29.131Z,78.5
2016-08-04T14:57:39.135Z,78.4
2016-08-04T14:57:49.137Z,78.1
2016-08-04T14:57:59.143Z,78.6
2016-08-04T14:58:09.147Z,78.4
2016-08-04T14:58:18.425Z,78.8
2016-08-04T14:58:27.799Z,79
2016-08-04T14:58:39.175Z,78.9
2016-08-04T14:58:49.168Z,79.1
2016-08-04T14:58:57.716Z,79
2016-08-04T14:59:09.176Z,79.2
2016-08-04T14:59:19.187Z,78.9
2016-08-04T14:59:29.187Z,79.2
2016-08-04T14:59:39.190Z,78.9
2016-08-04T14:59:48.479Z,79
2016-08-04T14:59:59.199Z,78.1
2016-08-04T15:00:09.208Z,78.5
2016-08-04T15:00:19.221Z,78.9
2016-08-04T15:00:29.221Z,78.8
2016-08-04T15:00:39.226Z,78.6
2016-08-04T15:00:48.508Z,78.3
2016-08-04T15:00:59.230Z,78.3
2016-08-04T15:01:09.235Z,77.7
2016-08-04T15:01:18.515Z,78.5
2016-08-04T15:01:29.244Z,78.3
2016-08-04T15:01:39.249Z,78.3
2016-08-04T15:01:49.254Z,78.1
2016-08-04T15:01:59.273Z,78.3
2016-08-04T15:02:08.535Z,78.3
2016-08-04T15:02:19.271Z,77.8
2016-08-04T15:02:29.270Z,78.2
2016-08-04T15:02:39.278Z,78.2
2016-08-04T15:02:48.572Z,77.7
2016-08-04T15:02:59.302Z,77.5
2016-08-04T15:03:09.293Z,77.4
2016-08-04T15:03:19.314Z,77.8
2016-08-04T15:03:29.301Z,77.5
2016-08-04T15:03:38.569Z,77.1
2016-08-04T15:03:49.329Z,77.3
2016-08-04T15:03:59.322Z,77.6
2016-08-04T15:04:08.597Z,77
2016-08-04T15:04:19.332Z,77.2
2016-08-04T15:04:29.335Z,77.2
2016-08-04T15:04:39.333Z,77
2016-08-04T15:04:49.343Z,77.4
2016-08-04T15:04:59.351Z,77.6
2016-08-04T15:05:09.357Z,77.3
2016-08-04T15:05:19.355Z,77.1
2016-08-04T15:05:28.637Z,77.6
2016-08-04T15:05:38.644Z,77.6
2016-08-04T15:05:49.379Z,77.3
2016-08-04T15:05:59.374Z,77.4
2016-08-04T15:06:09.391Z,77.5
2016-08-04T15:06:19.392Z,77.1
2016-08-04T15:06:29.388Z,77.3
2016-08-04T15:06:38.714Z,77.5
2016-08-04T15:06:49.402Z,77.4
2016-08-04T15:06:58.679Z,77.5
2016-08-04T15:07:09.406Z,77.1
2016-08-04T15:07:19.415Z,77.6
2016-08-04T15:07:29.423Z,77.6
2016-08-04T15:07:39.428Z,78
2016-08-04T15:07:49.426Z,78.5
2016-08-04T15:07:59.487Z,78.2
2016-08-04T15:08:08.712Z,78
2016-08-04T15:08:28.724Z,78.4
2016-08-04T15:08:39.453Z,78.1
2016-08-04T15:08:48.732Z,78.5
2016-08-04T15:08:59.470Z,78.3
2016-08-04T15:09:09.470Z,78.9
2016-08-04T15:09:19.477Z,78.4
2016-08-04T15:09:29.483Z,78.6
2016-08-04T15:09:38.750Z,77.9
2016-08-04T15:09:49.491Z,78
2016-08-04T15:09:58.751Z,78.3
2016-08-04T15:10:09.584Z,78.5
2016-08-04T15:10:19.506Z,78.7
2016-08-04T15:10:29.507Z,78.9
2016-08-04T15:10:39.505Z,79.1
2016-08-04T15:10:49.516Z,78.9
2016-08-04T15:10:59.530Z,79
2016-08-04T15:11:09.519Z,78.4
2016-08-04T15:11:19.527Z,78.9
2016-08-04T15:11:29.536Z,78.5
2016-08-04T15:11:39.539Z,78.7
2016-08-04T15:11:49.547Z,78.2
2016-08-04T15:11:59.556Z,78.4
2016-08-04T15:12:09.552Z,78.5
2016-08-04T15:12:19.567Z,78.2
2016-08-04T15:12:29.564Z,78.7
2016-08-04T15:12:39.573Z,78.4
2016-08-04T15:12:49.574Z,78.4
2016-08-04T15:12:58.847Z,78.3
2016-08-04T15:13:08.856Z,78.7
2016-08-04T15:13:19.584Z,78.3
2016-08-04T15:13:28.868Z,78.5
2016-08-04T15:13:39.595Z,78.2
2016-08-04T15:13:49.601Z,78.7
2016-08-04T15:13:59.607Z,78.8
2016-08-04T15:14:09.627Z,79.1
2016-08-04T15:14:19.874Z,78.7
2016-08-04T15:14:28.926Z,79.5
2016-08-04T15:14:39.689Z,78.7
2016-08-04T15:14:49.630Z,79.3
2016-08-04T15:14:59.632Z,79
2016-08-04T15:15:09.655Z,79
2016-08-04T15:15:19.647Z,79
2016-08-04T15:15:29.650Z,79
2016-08-04T15:15:39.654Z,79
2016-08-04T15:15:49.667Z,78.7
2016-08-04T15:15:59.670Z,79
2016-08-04T15:16:08.202Z,79.1
2016-08-04T15:16:19.673Z,79.1
2016-08-04T15:16:29.674Z,79.2
2016-08-04T15:16:39.688Z,78.8
2016-08-04T15:16:49.740Z,78.9
2016-08-04T15:16:58.966Z,78.9
2016-08-04T15:17:09.704Z,79.1
2016-08-04T15:17:19.704Z,78.8
2016-08-04T15:17:28.980Z,78.6
2016-08-04T15:17:38.990Z,78.6
2016-08-04T15:17:49.716Z,78.4
2016-08-04T15:17:59.723Z,79
2016-08-04T15:18:09.731Z,78.8
2016-08-04T15:18:19.731Z,78.5
2016-08-04T15:18:29.008Z,78.7
2016-08-04T15:18:39.741Z,78.3
2016-08-04T15:18:49.751Z,78
2016-08-04T15:18:59.752Z,78.9
2016-08-04T15:19:09.758Z,78.4
2016-08-04T15:19:19.764Z,78
2016-08-04T15:19:29.030Z,78.1
2016-08-04T15:19:39.775Z,78.4
2016-08-04T15:19:49.064Z,78.6
2016-08-04T15:19:59.780Z,77.8
2016-08-04T15:20:09.781Z,77.8
2016-08-04T15:20:19.792Z,77.6
2016-08-04T15:20:29.064Z,78.3
2016-08-04T15:20:39.798Z,78.1
2016-08-04T15:20:49.807Z,77.2
2016-08-04T15:20:59.069Z,77.5
2016-08-04T15:21:09.087Z,77.6
2016-08-04T15:21:19.089Z,78.4
2016-08-04T15:21:29.852Z,77.8
2016-08-04T15:21:39.219Z,77.6
2016-08-04T15:21:49.833Z,78.2
2016-08-04T15:21:59.845Z,77.9
2016-08-04T15:22:09.845Z,77.6
2016-08-04T15:22:19.843Z,77.7
2016-08-04T15:22:29.858Z,77.8
2016-08-04T15:22:39.114Z,77.8
2016-08-04T15:22:49.858Z,77.6
2016-08-04T15:22:59.868Z,77.8
2016-08-04T15:23:09.875Z,77.5
2016-08-04T15:23:29.880Z,78.2
2016-08-04T15:23:38.533Z,78.1
2016-08-04T15:23:49.168Z,77.5
2016-08-04T15:23:59.894Z,77.7
2016-08-04T15:24:09.897Z,77.4
2016-08-04T15:24:17.713Z,77.8
2016-08-04T15:24:29.904Z,77.9
2016-08-04T15:24:39.918Z,77.9
2016-08-04T15:24:49.411Z,77.8
2016-08-04T15:24:59.923Z,78.3
2016-08-04T15:25:09.931Z,78.2
2016-08-04T15:25:19.933Z,78.7
2016-08-04T15:25:29.209Z,78
2016-08-04T15:25:39.943Z,78.2
2016-08-04T15:25:49.948Z,78.2
2016-08-04T15:25:59.945Z,78.3
2016-08-04T15:26:09.966Z,78.6
2016-08-04T15:26:19.223Z,78.8
2016-08-04T15:26:29.975Z,78.8
2016-08-04T15:26:39.972Z,78.6
2016-08-04T15:26:49.973Z,78.6
2016-08-04T15:26:59.985Z,78.3
2016-08-04T15:27:09.989Z,78.8
2016-08-04T15:27:17.802Z,78.8
2016-08-04T15:27:29.997Z,78.9
2016-08-04T15:27:40.002Z,79.1
2016-08-04T15:27:50.002Z,79
2016-08-04T15:28:00.009Z,79.1
2016-08-04T15:28:10.015Z,79.2
2016-08-04T15:28:19.298Z,79.7
2016-08-04T15:28:29.312Z,79.5
2016-08-04T15:28:40.030Z,79.5
2016-08-04T15:28:50.035Z,79.1
2016-08-04T15:28:58.581Z,79.5
2016-08-04T15:29:10.050Z,79.5
2016-08-04T15:29:19.327Z,79.6
2016-08-04T15:29:30.196Z,79.4
2016-08-04T15:29:39.455Z,79.5
2016-08-04T15:29:49.322Z,79.9
2016-08-04T15:30:00.079Z,79.6
2016-08-04T15:30:10.075Z,79.7
2016-08-04T15:30:20.075Z,79.4
2016-08-04T15:30:30.083Z,80
2016-08-04T15:30:40.086Z,79.4
2016-08-04T15:30:50.093Z,79.6
2016-08-04T15:31:00.097Z,80.2
2016-08-04T15:31:10.101Z,80.1
2016-08-04T15:31:19.376Z,79.7
2016-08-04T15:31:30.107Z,79.8
2016-08-04T15:31:40.122Z,79.6
2016-08-04T15:31:50.115Z,79.8
2016-08-04T15:32:00.119Z,79.6
2016-08-04T15:32:10.127Z,80
2016-08-04T15:32:20.143Z,79.4
2016-08-04T15:32:30.147Z,80.1
2016-08-04T15:32:40.144Z,80.1
2016-08-04T15:32:50.158Z,79.6
2016-08-04T15:32:58.001Z,79.9
2016-08-04T15:33:09.426Z,79.9
2016-08-04T15:33:20.161Z,79.9
2016-08-04T15:33:30.165Z,79.5
2016-08-04T15:33:39.447Z,80.1
2016-08-04T15:33:50.177Z,79.9
2016-08-04T15:34:00.187Z,79.5
2016-08-04T15:34:10.184Z,79.8
2016-08-04T15:34:20.190Z,80.3
2016-08-04T15:34:29.467Z,80
2016-08-04T15:34:40.210Z,79.9
2016-08-04T15:34:50.209Z,80.1
2016-08-04T15:35:00.209Z,79.8
2016-08-04T15:35:10.213Z,79.6
2016-08-04T15:35:20.225Z,79.7
2016-08-04T15:35:30.223Z,79.8
2016-08-04T15:35:40.229Z,79.5
2016-08-04T15:35:50.242Z,79.6
2016-08-04T15:36:00.242Z,79.8
2016-08-04T15:36:10.273Z,79.5
2016-08-04T15:36:20.248Z,79.8
2016-08-04T15:36:30.253Z,79.6
2016-08-04T15:36:39.541Z,79.8
2016-08-04T15:36:48.833Z,79.9
2016-08-04T15:37:00.267Z,80
2016-08-04T15:37:10.276Z,79.8
2016-08-04T15:37:20.272Z,79.7
2016-08-04T15:37:30.283Z,79.7
2016-08-04T15:37:40.285Z,80
2016-08-04T15:37:49.568Z,80.1
2016-08-04T15:38:00.291Z,79.2
2016-08-04T15:38:10.310Z,80.1
2016-08-04T15:38:29.588Z,79.6
2016-08-04T15:38:40.311Z,79.8
2016-08-04T15:38:49.584Z,79.3
2016-08-04T15:39:00.328Z,79.9
2016-08-04T15:39:10.330Z,79.9
2016-08-04T15:39:20.336Z,79.8
2016-08-04T15:39:30.349Z,79.7
2016-08-04T15:39:40.341Z,79.7
2016-08-04T15:39:50.353Z,79.8
2016-08-04T15:40:00.353Z,79.5
2016-08-04T15:40:10.364Z,79.3
2016-08-04T15:40:19.633Z,79.7
2016-08-04T15:40:29.638Z,79.1
2016-08-04T15:40:39.644Z,79.3
2016-08-04T15:40:50.380Z,79.1
2016-08-04T15:40:59.662Z,79.1
2016-08-04T15:41:09.659Z,79
2016-08-04T15:41:20.390Z,79.1
2016-08-04T15:41:30.403Z,79.3
2016-08-04T15:41:40.402Z,79.3
2016-08-04T15:41:50.408Z,80.1
2016-08-04T15:42:00.406Z,79.4
2016-08-04T15:42:10.413Z,79.6
2016-08-04T15:42:20.424Z,79.7
2016-08-04T15:42:29.713Z,79.7
2016-08-04T15:42:40.431Z,79.4
2016-08-04T15:42:50.437Z,79.1
2016-08-04T15:42:59.708Z,80.1
2016-08-04T15:43:09.717Z,79.5
2016-08-04T15:43:20.449Z,79.1
2016-08-04T15:43:30.454Z,79.7
2016-08-04T15:43:40.460Z,79.5
2016-08-04T15:43:50.468Z,79.7
2016-08-04T15:44:00.468Z,79.6
2016-08-04T15:44:10.477Z,79.2
2016-08-04T15:44:19.756Z,79.2
2016-08-04T15:44:29.753Z,79.1
2016-08-04T15:44:39.765Z,79
2016-08-04T15:44:50.494Z,79.5
2016-08-04T15:45:00.507Z,79
2016-08-04T15:45:10.511Z,78.8
2016-08-04T15:45:19.775Z,79
2016-08-04T15:45:29.780Z,79.3
2016-08-04T15:45:40.515Z,79.4
2016-08-04T15:45:49.799Z,78.7
2016-08-04T15:46:00.530Z,79.2
2016-08-04T15:46:09.820Z,78.7
2016-08-04T15:46:20.536Z,78.9
2016-08-04T15:46:29.809Z,79.1
2016-08-04T15:46:39.812Z,79.9
2016-08-04T15:46:50.550Z,78.9
2016-08-04T15:47:00.554Z,79.4
2016-08-04T15:47:09.827Z,79.3
2016-08-04T15:47:20.566Z,79.6
2016-08-04T15:47:30.569Z,79.7
2016-08-04T15:47:40.580Z,79.8
2016-08-04T15:47:50.581Z,79.7
2016-08-04T15:47:59.856Z,79.1
2016-08-04T15:48:09.862Z,79.7
2016-08-04T15:48:19.864Z,80
2016-08-04T15:48:30.602Z,79.3
2016-08-04T15:48:40.608Z,79.5
2016-08-04T15:48:50.609Z,79.7
2016-08-04T15:49:00.616Z,79.3
2016-08-04T15:49:10.625Z,79.5
2016-08-04T15:49:18.655Z,79.7
2016-08-04T15:49:29.908Z,79.9
2016-08-04T15:49:38.455Z,79.9
2016-08-04T15:49:49.181Z,79.6
2016-08-04T15:49:59.911Z,79.6
2016-08-04T15:50:10.649Z,80.2
2016-08-04T15:50:20.649Z,80.3
2016-08-04T15:50:30.662Z,80.1
2016-08-04T15:50:39.925Z,80.2
2016-08-04T15:50:49.942Z,79.7
2016-08-04T15:51:00.766Z,79.8
2016-08-04T15:51:10.681Z,80.3
2016-08-04T15:51:20.684Z,79.8
2016-08-04T15:51:30.687Z,80.4
2016-08-04T15:51:39.961Z,79.9
2016-08-04T15:51:49.964Z,80.1
2016-08-04T15:52:00.709Z,80.3
2016-08-04T15:52:10.707Z,79.8
2016-08-04T15:52:20.711Z,79.4
2016-08-04T15:52:29.977Z,79.8
2016-08-04T15:52:40.729Z,80.5
2016-08-04T15:52:50.726Z,80
2016-08-04T15:53:00.729Z,79.7
2016-08-04T15:53:10.732Z,79.7
2016-08-04T15:53:29.381Z,79.9
2016-08-04T15:53:40.744Z,80.6
2016-08-04T15:53:50.749Z,80.5
2016-08-04T15:54:00.763Z,80.3
2016-08-04T15:54:10.774Z,80.3
2016-08-04T15:54:20.779Z,79.8
2016-08-04T15:54:30.769Z,79.7
2016-08-04T15:54:40.772Z,79.9
2016-08-04T15:54:50.780Z,79.7
2016-08-04T15:55:00.906Z,80.1
2016-08-04T15:55:10.793Z,80.1
2016-08-04T15:55:20.065Z,79.6
2016-08-04T15:55:30.842Z,80.2
2016-08-04T15:55:40.805Z,80.5
2016-08-04T15:55:50.810Z,80
2016-08-04T15:56:00.811Z,79.6
2016-08-04T15:56:10.090Z,80.2
2016-08-04T15:56:20.827Z,79.8
2016-08-04T15:56:30.830Z,80
2016-08-04T15:56:40.862Z,79.7
2016-08-04T15:56:50.856Z,80.4
2016-08-04T15:57:00.110Z,80
2016-08-04T15:57:10.849Z,79.7
2016-08-04T15:57:20.853Z,79.6
2016-08-04T15:57:30.867Z,79.6
2016-08-04T15:57:40.861Z,79.9
2016-08-04T15:57:50.882Z,80.4
2016-08-04T15:58:00.144Z,80.1
2016-08-04T15:58:10.876Z,80.1
2016-08-04T15:58:20.875Z,79.8
2016-08-04T15:58:30.884Z,80
2016-08-04T15:58:40.155Z,79.4
2016-08-04T15:58:50.896Z,79.8
2016-08-04T15:59:00.181Z,80.2
2016-08-04T15:59:10.904Z,80
2016-08-04T15:59:20.910Z,80.3
2016-08-04T15:59:30.910Z,79.7
2016-08-04T15:59:40.920Z,80.1
2016-08-04T15:59:50.926Z,79.9
2016-08-04T16:00:00.946Z,79.6
2016-08-04T16:00:10.939Z,80.2
2016-08-04T16:00:20.947Z,79.8
2016-08-04T16:00:30.213Z,79.9
2016-08-04T16:00:40.946Z,80
2016-08-04T16:00:50.956Z,79.5
2016-08-04T16:01:00.231Z,79.8
2016-08-04T16:01:10.967Z,79.1
2016-08-04T16:01:20.239Z,79.7